sensor_id;sensor_type;location;lat;lon;timestamp;P1;durP1;ratioP1;P2;durP2;ratioP2
49536;SDS011;74893;30.696;104.058;2024-02-16T00:01:03;12.15;;;5.80;;
49536;SDS011;74893;30.696;104.058;2024-02-16T00:03:30;13.77;;;6.40;;
49536;SDS011;74893;30.696;104.058;2024-02-16T00:05:57;11.80;;;6.05;;
49536;SDS011;74893;30.696;104.058;2024-02-16T00:08:24;10.98;;;6.53;;
49536;SDS011;74893;30.696;104.058;2024-02-16T00:10:51;10.07;;;6.20;;
49536;SDS011;74893;30.696;104.058;2024-02-16T00:13:18;10.38;;;6.65;;
49536;SDS011;74893;30.696;104.058;2024-02-16T00:15:45;11.25;;;6.65;;
49536;SDS011;74893;30.696;104.058;2024-02-16T00:18:12;9.68;;;5.95;;
49536;SDS011;74893;30.696;104.058;2024-02-16T00:20:38;11.50;;;6.40;;
49536;SDS011;74893;30.696;104.058;2024-02-16T00:23:06;11.32;;;6.50;;
49536;SDS011;74893;30.696;104.058;2024-02-16T00:25:33;9.88;;;5.78;;
49536;SDS011;74893;30.696;104.058;2024-02-16T00:28:00;11.40;;;6.13;;
49536;SDS011;74893;30.696;104.058;2024-02-16T00:30:28;13.25;;;6.43;;
49536;SDS011;74893;30.696;104.058;2024-02-16T00:32:55;9.85;;;5.68;;
49536;SDS011;74893;30.696;104.058;2024-02-16T00:35:22;10.27;;;6.35;;
49536;SDS011;74893;30.696;104.058;2024-02-16T00:37:49;10.32;;;6.43;;
49536;SDS011;74893;30.696;104.058;2024-02-16T00:40:16;11.10;;;6.45;;
49536;SDS011;74893;30.696;104.058;2024-02-16T00:42:43;11.30;;;6.72;;
49536;SDS011;74893;30.696;104.058;2024-02-16T00:45:09;11.35;;;6.00;;
49536;SDS011;74893;30.696;104.058;2024-02-16T00:47:36;10.23;;;6.05;;
49536;SDS011;74893;30.696;104.058;2024-02-16T00:50:05;10.30;;;6.55;;
49536;SDS011;74893;30.696;104.058;2024-02-16T00:52:34;11.60;;;6.68;;
49536;SDS011;74893;30.696;104.058;2024-02-16T00:55:01;10.30;;;6.40;;
49536;SDS011;74893;30.696;104.058;2024-02-16T00:57:29;11.00;;;6.63;;
49536;SDS011;74893;30.696;104.058;2024-02-16T00:59:56;11.85;;;6.65;;
49536;SDS011;74893;30.696;104.058;2024-02-16T01:02:23;10.75;;;6.03;;
49536;SDS011;74893;30.696;104.058;2024-02-16T01:04:50;14.90;;;6.57;;
49536;SDS011;74893;30.696;104.058;2024-02-16T01:07:18;10.93;;;6.78;;
49536;SDS011;74893;30.696;104.058;2024-02-16T01:09:45;13.45;;;6.13;;
49536;SDS011;74893;30.696;104.058;2024-02-16T01:12:14;10.30;;;6.10;;
49536;SDS011;74893;30.696;104.058;2024-02-16T01:14:41;10.57;;;6.13;;
49536;SDS011;74893;30.696;104.058;2024-02-16T01:17:07;10.43;;;6.35;;
49536;SDS011;74893;30.696;104.058;2024-02-16T01:19:35;10.38;;;6.72;;
49536;SDS011;74893;30.696;104.058;2024-02-16T01:22:01;12.95;;;6.43;;
49536;SDS011;74893;30.696;104.058;2024-02-16T01:24:29;11.70;;;6.35;;
49536;SDS011;74893;30.696;104.058;2024-02-16T01:26:56;11.35;;;5.88;;
49536;SDS011;74893;30.696;104.058;2024-02-16T01:29:23;9.40;;;6.28;;
49536;SDS011;74893;30.696;104.058;2024-02-16T01:31:50;10.35;;;6.20;;
49536;SDS011;74893;30.696;104.058;2024-02-16T01:34:17;9.88;;;6.40;;
49536;SDS011;74893;30.696;104.058;2024-02-16T01:36:44;9.93;;;5.68;;
49536;SDS011;74893;30.696;104.058;2024-02-16T01:39:11;11.32;;;6.43;;
49536;SDS011;74893;30.696;104.058;2024-02-16T01:41:41;12.15;;;6.40;;
49536;SDS011;74893;30.696;104.058;2024-02-16T01:44:11;12.23;;;6.72;;
49536;SDS011;74893;30.696;104.058;2024-02-16T01:46:42;12.35;;;7.13;;
49536;SDS011;74893;30.696;104.058;2024-02-16T01:49:10;13.25;;;6.97;;
49536;SDS011;74893;30.696;104.058;2024-02-16T01:51:39;14.40;;;7.57;;
49536;SDS011;74893;30.696;104.058;2024-02-16T01:54:07;12.57;;;6.97;;
49536;SDS011;74893;30.696;104.058;2024-02-16T01:56:35;11.95;;;7.13;;
49536;SDS011;74893;30.696;104.058;2024-02-16T01:59:02;14.38;;;7.28;;
49536;SDS011;74893;30.696;104.058;2024-02-16T02:01:30;13.45;;;6.80;;
49536;SDS011;74893;30.696;104.058;2024-02-16T02:03:57;13.25;;;7.47;;
49536;SDS011;74893;30.696;104.058;2024-02-16T02:06:24;12.52;;;6.35;;
49536;SDS011;74893;30.696;104.058;2024-02-16T02:08:51;14.80;;;6.60;;
49536;SDS011;74893;30.696;104.058;2024-02-16T02:11:18;13.07;;;7.25;;
49536;SDS011;74893;30.696;104.058;2024-02-16T02:13:45;11.15;;;6.72;;
49536;SDS011;74893;30.696;104.058;2024-02-16T02:16:12;15.07;;;6.97;;
49536;SDS011;74893;30.696;104.058;2024-02-16T02:18:39;12.43;;;6.97;;
49536;SDS011;74893;30.696;104.058;2024-02-16T02:21:06;12.18;;;7.00;;
49536;SDS011;74893;30.696;104.058;2024-02-16T02:23:33;14.93;;;7.40;;
49536;SDS011;74893;30.696;104.058;2024-02-16T02:26:01;14.20;;;7.07;;
49536;SDS011;74893;30.696;104.058;2024-02-16T02:28:28;13.85;;;7.28;;
49536;SDS011;74893;30.696;104.058;2024-02-16T02:30:55;11.55;;;6.75;;
49536;SDS011;74893;30.696;104.058;2024-02-16T02:33:21;14.07;;;7.90;;
49536;SDS011;74893;30.696;104.058;2024-02-16T02:35:48;15.48;;;7.78;;
49536;SDS011;74893;30.696;104.058;2024-02-16T02:38:17;17.00;;;7.75;;
49536;SDS011;74893;30.696;104.058;2024-02-16T02:40:47;13.40;;;7.75;;
49536;SDS011;74893;30.696;104.058;2024-02-16T02:43:14;15.55;;;8.32;;
49536;SDS011;74893;30.696;104.058;2024-02-16T02:45:44;16.67;;;9.25;;
49536;SDS011;74893;30.696;104.058;2024-02-16T02:48:11;17.92;;;9.02;;
49536;SDS011;74893;30.696;104.058;2024-02-16T02:50:37;14.70;;;8.18;;
49536;SDS011;74893;30.696;104.058;2024-02-16T02:53:07;18.38;;;8.93;;
49536;SDS011;74893;30.696;104.058;2024-02-16T02:55:34;15.23;;;8.60;;
49536;SDS011;74893;30.696;104.058;2024-02-16T02:58:04;14.52;;;8.50;;
49536;SDS011;74893;30.696;104.058;2024-02-16T03:00:31;16.83;;;8.80;;
49536;SDS011;74893;30.696;104.058;2024-02-16T03:02:57;17.08;;;8.70;;
49536;SDS011;74893;30.696;104.058;2024-02-16T03:05:24;15.18;;;9.13;;
49536;SDS011;74893;30.696;104.058;2024-02-16T03:07:51;18.08;;;9.02;;
49536;SDS011;74893;30.696;104.058;2024-02-16T03:10:18;16.30;;;8.80;;
49536;SDS011;74893;30.696;104.058;2024-02-16T03:12:47;17.38;;;8.55;;
49536;SDS011;74893;30.696;104.058;2024-02-16T03:15:17;18.15;;;9.38;;
49536;SDS011;74893;30.696;104.058;2024-02-16T03:17:44;15.98;;;8.57;;
49536;SDS011;74893;30.696;104.058;2024-02-16T03:20:12;17.33;;;9.23;;
49536;SDS011;74893;30.696;104.058;2024-02-16T03:22:39;15.63;;;8.93;;
49536;SDS011;74893;30.696;104.058;2024-02-16T03:25:06;15.65;;;8.63;;
49536;SDS011;74893;30.696;104.058;2024-02-16T03:27:36;15.77;;;9.13;;
49536;SDS011;74893;30.696;104.058;2024-02-16T03:30:02;16.48;;;8.60;;
49536;SDS011;74893;30.696;104.058;2024-02-16T03:32:31;18.33;;;9.35;;
49536;SDS011;74893;30.696;104.058;2024-02-16T03:34:58;17.20;;;8.68;;
49536;SDS011;74893;30.696;104.058;2024-02-16T03:37:25;16.13;;;8.73;;
49536;SDS011;74893;30.696;104.058;2024-02-16T03:39:52;17.33;;;8.70;;
49536;SDS011;74893;30.696;104.058;2024-02-16T03:42:19;17.73;;;7.68;;
49536;SDS011;74893;30.696;104.058;2024-02-16T03:44:46;18.05;;;8.18;;
49536;SDS011;74893;30.696;104.058;2024-02-16T03:47:18;12.75;;;7.85;;
49536;SDS011;74893;30.696;104.058;2024-02-16T03:49:45;15.90;;;8.15;;
49536;SDS011;74893;30.696;104.058;2024-02-16T03:52:12;14.43;;;8.23;;
49536;SDS011;74893;30.696;104.058;2024-02-16T03:54:39;13.32;;;8.10;;
49536;SDS011;74893;30.696;104.058;2024-02-16T03:57:07;14.77;;;7.90;;
49536;SDS011;74893;30.696;104.058;2024-02-16T03:59:37;14.35;;;7.85;;
49536;SDS011;74893;30.696;104.058;2024-02-16T04:02:03;14.23;;;7.63;;
49536;SDS011;74893;30.696;104.058;2024-02-16T04:04:30;12.23;;;7.20;;
49536;SDS011;74893;30.696;104.058;2024-02-16T04:06:57;15.50;;;8.55;;
49536;SDS011;74893;30.696;104.058;2024-02-16T04:09:24;13.07;;;8.07;;
49536;SDS011;74893;30.696;104.058;2024-02-16T04:11:51;14.90;;;8.10;;
49536;SDS011;74893;30.696;104.058;2024-02-16T04:14:18;16.40;;;7.78;;
49536;SDS011;74893;30.696;104.058;2024-02-16T04:16:45;16.85;;;7.65;;
49536;SDS011;74893;30.696;104.058;2024-02-16T04:22:40;13.93;;;7.90;;
49536;SDS011;74893;30.696;104.058;2024-02-16T04:25:07;13.15;;;7.95;;
49536;SDS011;74893;30.696;104.058;2024-02-16T04:27:34;14.30;;;7.07;;
49536;SDS011;74893;30.696;104.058;2024-02-16T04:30:02;13.30;;;7.65;;
49536;SDS011;74893;30.696;104.058;2024-02-16T04:32:30;15.68;;;7.88;;
49536;SDS011;74893;30.696;104.058;2024-02-16T04:34:58;13.27;;;7.88;;
49536;SDS011;74893;30.696;104.058;2024-02-16T04:37:26;17.08;;;7.85;;
49536;SDS011;74893;30.696;104.058;2024-02-16T04:39:56;14.15;;;7.68;;
49536;SDS011;74893;30.696;104.058;2024-02-16T04:42:26;13.77;;;7.75;;
49536;SDS011;74893;30.696;104.058;2024-02-16T04:44:52;12.55;;;7.40;;
49536;SDS011;74893;30.696;104.058;2024-02-16T04:47:22;13.32;;;8.25;;
49536;SDS011;74893;30.696;104.058;2024-02-16T04:49:52;13.80;;;7.63;;
49536;SDS011;74893;30.696;104.058;2024-02-16T04:52:22;12.55;;;7.45;;
49536;SDS011;74893;30.696;104.058;2024-02-16T04:54:49;15.57;;;7.88;;
49536;SDS011;74893;30.696;104.058;2024-02-16T04:57:16;14.30;;;7.47;;
49536;SDS011;74893;30.696;104.058;2024-02-16T04:59:43;14.00;;;7.30;;
49536;SDS011;74893;30.696;104.058;2024-02-16T05:02:10;12.05;;;7.43;;
49536;SDS011;74893;30.696;104.058;2024-02-16T05:04:37;13.10;;;7.47;;
49536;SDS011;74893;30.696;104.058;2024-02-16T05:07:04;13.93;;;6.90;;
49536;SDS011;74893;30.696;104.058;2024-02-16T05:09:34;14.35;;;7.00;;
49536;SDS011;74893;30.696;104.058;2024-02-16T05:12:01;13.20;;;7.28;;
49536;SDS011;74893;30.696;104.058;2024-02-16T05:14:28;11.20;;;6.65;;
49536;SDS011;74893;30.696;104.058;2024-02-16T05:16:55;12.43;;;7.15;;
49536;SDS011;74893;30.696;104.058;2024-02-16T05:19:23;14.43;;;7.90;;
49536;SDS011;74893;30.696;104.058;2024-02-16T05:21:51;15.57;;;7.50;;
49536;SDS011;74893;30.696;104.058;2024-02-16T05:24:22;12.13;;;6.88;;
49536;SDS011;74893;30.696;104.058;2024-02-16T05:26:49;17.08;;;8.05;;
49536;SDS011;74893;30.696;104.058;2024-02-16T05:29:17;11.30;;;6.85;;
49536;SDS011;74893;30.696;104.058;2024-02-16T05:31:46;15.27;;;7.43;;
49536;SDS011;74893;30.696;104.058;2024-02-16T05:34:16;12.73;;;6.95;;
49536;SDS011;74893;30.696;104.058;2024-02-16T05:36:46;11.50;;;6.95;;
49536;SDS011;74893;30.696;104.058;2024-02-16T05:39:13;16.42;;;7.18;;
49536;SDS011;74893;30.696;104.058;2024-02-16T05:41:54;13.25;;;6.85;;
49536;SDS011;74893;30.696;104.058;2024-02-16T05:46:48;13.23;;;6.70;;
49536;SDS011;74893;30.696;104.058;2024-02-16T05:49:15;18.52;;;7.80;;
49536;SDS011;74893;30.696;104.058;2024-02-16T05:51:46;13.45;;;7.35;;
49536;SDS011;74893;30.696;104.058;2024-02-16T05:54:31;10.45;;;6.28;;
49536;SDS011;74893;30.696;104.058;2024-02-16T05:56:58;11.13;;;6.40;;
49536;SDS011;74893;30.696;104.058;2024-02-16T05:59:24;12.98;;;6.90;;
49536;SDS011;74893;30.696;104.058;2024-02-16T06:01:52;15.43;;;7.10;;
49536;SDS011;74893;30.696;104.058;2024-02-16T06:04:19;12.18;;;6.82;;
49536;SDS011;74893;30.696;104.058;2024-02-16T06:06:46;12.07;;;7.18;;
49536;SDS011;74893;30.696;104.058;2024-02-16T06:09:13;12.73;;;7.28;;
49536;SDS011;74893;30.696;104.058;2024-02-16T06:11:40;14.05;;;7.40;;
49536;SDS011;74893;30.696;104.058;2024-02-16T06:14:07;10.80;;;6.50;;
49536;SDS011;74893;30.696;104.058;2024-02-16T06:16:34;12.45;;;7.22;;
49536;SDS011;74893;30.696;104.058;2024-02-16T06:19:01;13.82;;;6.57;;
49536;SDS011;74893;30.696;104.058;2024-02-16T06:21:28;14.30;;;6.65;;
49536;SDS011;74893;30.696;104.058;2024-02-16T06:23:57;11.18;;;6.90;;
49536;SDS011;74893;30.696;104.058;2024-02-16T06:26:24;13.32;;;7.40;;
49536;SDS011;74893;30.696;104.058;2024-02-16T06:28:53;11.05;;;6.18;;
49536;SDS011;74893;30.696;104.058;2024-02-16T06:31:20;13.77;;;7.28;;
49536;SDS011;74893;30.696;104.058;2024-02-16T06:33:47;10.93;;;6.47;;
49536;SDS011;74893;30.696;104.058;2024-02-16T06:36:14;13.82;;;6.40;;
49536;SDS011;74893;30.696;104.058;2024-02-16T06:38:41;11.88;;;6.85;;
49536;SDS011;74893;30.696;104.058;2024-02-16T06:41:09;12.55;;;6.30;;
49536;SDS011;74893;30.696;104.058;2024-02-16T06:43:38;14.20;;;6.82;;
49536;SDS011;74893;30.696;104.058;2024-02-16T06:46:05;9.75;;;6.43;;
49536;SDS011;74893;30.696;104.058;2024-02-16T06:48:32;12.27;;;6.43;;
49536;SDS011;74893;30.696;104.058;2024-02-16T06:51:00;11.32;;;6.28;;
49536;SDS011;74893;30.696;104.058;2024-02-16T06:53:27;9.50;;;6.45;;
49536;SDS011;74893;30.696;104.058;2024-02-16T06:55:54;12.50;;;6.20;;
49536;SDS011;74893;30.696;104.058;2024-02-16T06:58:21;12.18;;;6.93;;
49536;SDS011;74893;30.696;104.058;2024-02-16T07:00:47;11.02;;;6.40;;
49536;SDS011;74893;30.696;104.058;2024-02-16T07:03:16;11.43;;;6.93;;
49536;SDS011;74893;30.696;104.058;2024-02-16T07:05:44;10.05;;;6.10;;
49536;SDS011;74893;30.696;104.058;2024-02-16T07:08:11;10.88;;;6.53;;
49536;SDS011;74893;30.696;104.058;2024-02-16T07:10:41;14.57;;;6.88;;
49536;SDS011;74893;30.696;104.058;2024-02-16T07:13:09;11.60;;;5.80;;
49536;SDS011;74893;30.696;104.058;2024-02-16T07:15:39;12.35;;;6.13;;
49536;SDS011;74893;30.696;104.058;2024-02-16T07:18:09;11.15;;;5.55;;
49536;SDS011;74893;30.696;104.058;2024-02-16T07:20:40;11.68;;;6.03;;
49536;SDS011;74893;30.696;104.058;2024-02-16T07:23:07;11.80;;;6.03;;
49536;SDS011;74893;30.696;104.058;2024-02-16T07:25:36;12.80;;;6.47;;
49536;SDS011;74893;30.696;104.058;2024-02-16T07:28:05;34.35;;;14.43;;
49536;SDS011;74893;30.696;104.058;2024-02-16T07:30:32;29.27;;;12.38;;
49536;SDS011;74893;30.696;104.058;2024-02-16T07:33:02;26.75;;;11.13;;
49536;SDS011;74893;30.696;104.058;2024-02-16T07:35:28;20.13;;;9.45;;
49536;SDS011;74893;30.696;104.058;2024-02-16T07:38:01;26.48;;;9.55;;
49536;SDS011;74893;30.696;104.058;2024-02-16T07:40:28;18.88;;;8.25;;
49536;SDS011;74893;30.696;104.058;2024-02-16T07:42:56;16.73;;;8.75;;
49536;SDS011;74893;30.696;104.058;2024-02-16T07:45:23;21.02;;;8.43;;
49536;SDS011;74893;30.696;104.058;2024-02-16T07:47:50;20.50;;;9.50;;
49536;SDS011;74893;30.696;104.058;2024-02-16T07:50:21;22.33;;;9.30;;
49536;SDS011;74893;30.696;104.058;2024-02-16T07:55:14;19.05;;;7.78;;
49536;SDS011;74893;30.696;104.058;2024-02-16T07:57:46;17.05;;;8.60;;
49536;SDS011;74893;30.696;104.058;2024-02-16T08:00:13;14.52;;;7.93;;
49536;SDS011;74893;30.696;104.058;2024-02-16T08:02:41;17.83;;;8.15;;
49536;SDS011;74893;30.696;104.058;2024-02-16T08:05:11;15.88;;;7.95;;
49536;SDS011;74893;30.696;104.058;2024-02-16T08:07:44;16.15;;;8.30;;
49536;SDS011;74893;30.696;104.058;2024-02-16T08:10:13;17.02;;;8.48;;
49536;SDS011;74893;30.696;104.058;2024-02-16T08:12:40;13.77;;;7.57;;
49536;SDS011;74893;30.696;104.058;2024-02-16T08:15:07;14.38;;;7.40;;
49536;SDS011;74893;30.696;104.058;2024-02-16T08:17:36;15.23;;;7.63;;
49536;SDS011;74893;30.696;104.058;2024-02-16T08:20:04;16.88;;;8.43;;
49536;SDS011;74893;30.696;104.058;2024-02-16T08:22:32;24.20;;;8.50;;
49536;SDS011;74893;30.696;104.058;2024-02-16T08:24:59;16.02;;;6.88;;
49536;SDS011;74893;30.696;104.058;2024-02-16T08:27:27;13.63;;;7.15;;
49536;SDS011;74893;30.696;104.058;2024-02-16T08:30:01;14.10;;;7.68;;
49536;SDS011;74893;30.696;104.058;2024-02-16T08:32:29;15.95;;;7.25;;
49536;SDS011;74893;30.696;104.058;2024-02-16T08:34:56;14.02;;;7.38;;
49536;SDS011;74893;30.696;104.058;2024-02-16T08:37:25;14.15;;;7.53;;
49536;SDS011;74893;30.696;104.058;2024-02-16T08:39:52;14.85;;;7.07;;
49536;SDS011;74893;30.696;104.058;2024-02-16T08:42:19;11.95;;;7.38;;
49536;SDS011;74893;30.696;104.058;2024-02-16T08:44:48;13.65;;;7.07;;
49536;SDS011;74893;30.696;104.058;2024-02-16T08:47:15;14.20;;;6.68;;
49536;SDS011;74893;30.696;104.058;2024-02-16T08:49:44;14.00;;;6.82;;
49536;SDS011;74893;30.696;104.058;2024-02-16T08:52:11;14.73;;;7.07;;
49536;SDS011;74893;30.696;104.058;2024-02-16T08:54:38;13.20;;;6.85;;
49536;SDS011;74893;30.696;104.058;2024-02-16T08:57:07;13.68;;;7.18;;
49536;SDS011;74893;30.696;104.058;2024-02-16T08:59:35;14.63;;;6.88;;
49536;SDS011;74893;30.696;104.058;2024-02-16T09:02:02;14.60;;;6.43;;
49536;SDS011;74893;30.696;104.058;2024-02-16T09:04:29;14.23;;;6.63;;
49536;SDS011;74893;30.696;104.058;2024-02-16T09:06:59;12.90;;;6.82;;
49536;SDS011;74893;30.696;104.058;2024-02-16T09:09:26;16.17;;;7.20;;
49536;SDS011;74893;30.696;104.058;2024-02-16T09:11:53;14.10;;;6.32;;
49536;SDS011;74893;30.696;104.058;2024-02-16T09:14:20;14.68;;;6.60;;
49536;SDS011;74893;30.696;104.058;2024-02-16T09:16:50;14.10;;;6.55;;
49536;SDS011;74893;30.696;104.058;2024-02-16T09:19:17;14.10;;;6.45;;
49536;SDS011;74893;30.696;104.058;2024-02-16T09:21:48;12.07;;;5.90;;
49536;SDS011;74893;30.696;104.058;2024-02-16T09:24:17;12.68;;;6.38;;
49536;SDS011;74893;30.696;104.058;2024-02-16T09:26:47;12.98;;;6.60;;
49536;SDS011;74893;30.696;104.058;2024-02-16T09:29:15;15.75;;;6.97;;
49536;SDS011;74893;30.696;104.058;2024-02-16T09:31:43;17.95;;;6.55;;
49536;SDS011;74893;30.696;104.058;2024-02-16T09:34:10;17.40;;;6.28;;
49536;SDS011;74893;30.696;104.058;2024-02-16T09:36:39;15.88;;;6.40;;
49536;SDS011;74893;30.696;104.058;2024-02-16T09:39:06;9.93;;;5.90;;
49536;SDS011;74893;30.696;104.058;2024-02-16T09:41:43;11.63;;;5.88;;
49536;SDS011;74893;30.696;104.058;2024-02-16T09:44:17;12.40;;;5.78;;
49536;SDS011;74893;30.696;104.058;2024-02-16T09:46:45;10.73;;;5.85;;
49536;SDS011;74893;30.696;104.058;2024-02-16T09:49:12;11.18;;;5.47;;
49536;SDS011;74893;30.696;104.058;2024-02-16T09:51:39;11.98;;;5.85;;
49536;SDS011;74893;30.696;104.058;2024-02-16T09:54:07;10.00;;;5.45;;
49536;SDS011;74893;30.696;104.058;2024-02-16T09:56:34;11.65;;;5.70;;
49536;SDS011;74893;30.696;104.058;2024-02-16T09:59:03;10.95;;;5.38;;
49536;SDS011;74893;30.696;104.058;2024-02-16T10:01:29;13.52;;;5.90;;
49536;SDS011;74893;30.696;104.058;2024-02-16T10:04:05;13.52;;;5.50;;
49536;SDS011;74893;30.696;104.058;2024-02-16T10:06:33;9.88;;;6.03;;
49536;SDS011;74893;30.696;104.058;2024-02-16T10:09:26;17.65;;;6.93;;
49536;SDS011;74893;30.696;104.058;2024-02-16T10:11:58;12.32;;;5.22;;
49536;SDS011;74893;30.696;104.058;2024-02-16T10:14:26;11.25;;;5.72;;
49536;SDS011;74893;30.696;104.058;2024-02-16T10:17:00;12.20;;;5.97;;
49536;SDS011;74893;30.696;104.058;2024-02-16T10:19:29;10.20;;;5.10;;
49536;SDS011;74893;30.696;104.058;2024-02-16T10:24:41;12.70;;;6.22;;
49536;SDS011;74893;30.696;104.058;2024-02-16T10:27:16;11.13;;;5.50;;
49536;SDS011;74893;30.696;104.058;2024-02-16T10:29:43;11.70;;;5.75;;
49536;SDS011;74893;30.696;104.058;2024-02-16T10:32:16;11.73;;;5.50;;
49536;SDS011;74893;30.696;104.058;2024-02-16T10:34:43;12.63;;;5.85;;
49536;SDS011;74893;30.696;104.058;2024-02-16T10:37:15;10.77;;;5.22;;
49536;SDS011;74893;30.696;104.058;2024-02-16T10:39:42;11.57;;;6.20;;
49536;SDS011;74893;30.696;104.058;2024-02-16T10:42:11;12.65;;;6.35;;
49536;SDS011;74893;30.696;104.058;2024-02-16T10:44:40;10.60;;;5.97;;
49536;SDS011;74893;30.696;104.058;2024-02-16T10:47:08;9.90;;;5.72;;
49536;SDS011;74893;30.696;104.058;2024-02-16T10:49:36;9.38;;;5.65;;
49536;SDS011;74893;30.696;104.058;2024-02-16T10:52:04;12.50;;;5.63;;
49536;SDS011;74893;30.696;104.058;2024-02-16T10:54:32;13.20;;;5.85;;
49536;SDS011;74893;30.696;104.058;2024-02-16T10:57:00;11.48;;;5.57;;
49536;SDS011;74893;30.696;104.058;2024-02-16T10:59:27;11.15;;;5.78;;
49536;SDS011;74893;30.696;104.058;2024-02-16T11:02:08;11.25;;;5.82;;
49536;SDS011;74893;30.696;104.058;2024-02-16T11:04:38;10.10;;;5.38;;
49536;SDS011;74893;30.696;104.058;2024-02-16T11:07:15;10.50;;;5.20;;
49536;SDS011;74893;30.696;104.058;2024-02-16T11:09:43;12.00;;;5.15;;
49536;SDS011;74893;30.696;104.058;2024-02-16T11:12:14;10.05;;;5.32;;
49536;SDS011;74893;30.696;104.058;2024-02-16T11:14:42;10.30;;;5.82;;
49536;SDS011;74893;30.696;104.058;2024-02-16T11:17:20;11.45;;;5.55;;
49536;SDS011;74893;30.696;104.058;2024-02-16T11:19:49;9.90;;;6.05;;
49536;SDS011;74893;30.696;104.058;2024-02-16T11:22:29;11.05;;;5.68;;
49536;SDS011;74893;30.696;104.058;2024-02-16T11:24:58;10.93;;;5.20;;
49536;SDS011;74893;30.696;104.058;2024-02-16T11:27:26;14.23;;;5.72;;
49536;SDS011;74893;30.696;104.058;2024-02-16T11:29:53;11.52;;;5.65;;
49536;SDS011;74893;30.696;104.058;2024-02-16T11:32:21;9.48;;;5.53;;
49536;SDS011;74893;30.696;104.058;2024-02-16T11:34:48;12.30;;;5.75;;
49536;SDS011;74893;30.696;104.058;2024-02-16T11:37:17;9.43;;;5.35;;
49536;SDS011;74893;30.696;104.058;2024-02-16T11:39:44;10.63;;;5.57;;
49536;SDS011;74893;30.696;104.058;2024-02-16T11:42:12;11.32;;;5.30;;
49536;SDS011;74893;30.696;104.058;2024-02-16T11:44:41;9.63;;;5.35;;
49536;SDS011;74893;30.696;104.058;2024-02-16T11:47:21;12.15;;;5.68;;
49536;SDS011;74893;30.696;104.058;2024-02-16T11:50:06;9.93;;;5.45;;
49536;SDS011;74893;30.696;104.058;2024-02-16T11:52:39;14.43;;;6.22;;
49536;SDS011;74893;30.696;104.058;2024-02-16T11:55:10;11.18;;;5.82;;
49536;SDS011;74893;30.696;104.058;2024-02-16T11:57:42;12.57;;;5.97;;
49536;SDS011;74893;30.696;104.058;2024-02-16T12:00:10;10.98;;;5.97;;
49536;SDS011;74893;30.696;104.058;2024-02-16T12:02:42;12.25;;;5.35;;
49536;SDS011;74893;30.696;104.058;2024-02-16T12:05:08;11.55;;;6.20;;
49536;SDS011;74893;30.696;104.058;2024-02-16T12:07:38;13.57;;;6.85;;
49536;SDS011;74893;30.696;104.058;2024-02-16T12:10:06;14.73;;;6.03;;
49536;SDS011;74893;30.696;104.058;2024-02-16T12:12:34;13.70;;;6.22;;
49536;SDS011;74893;30.696;104.058;2024-02-16T12:15:01;14.95;;;6.35;;
49536;SDS011;74893;30.696;104.058;2024-02-16T12:17:31;13.43;;;6.07;;
49536;SDS011;74893;30.696;104.058;2024-02-16T12:20:01;13.38;;;6.18;;
49536;SDS011;74893;30.696;104.058;2024-02-16T12:22:28;15.13;;;7.10;;
49536;SDS011;74893;30.696;104.058;2024-02-16T12:24:55;11.93;;;6.55;;
49536;SDS011;74893;30.696;104.058;2024-02-16T12:27:22;11.02;;;6.32;;
49536;SDS011;74893;30.696;104.058;2024-02-16T12:29:52;16.65;;;6.47;;
49536;SDS011;74893;30.696;104.058;2024-02-16T12:32:19;15.18;;;7.65;;
49536;SDS011;74893;30.696;104.058;2024-02-16T12:34:46;10.38;;;6.60;;
49536;SDS011;74893;30.696;104.058;2024-02-16T12:37:14;15.00;;;6.53;;
49536;SDS011;74893;30.696;104.058;2024-02-16T12:39:41;12.93;;;6.72;;
49536;SDS011;74893;30.696;104.058;2024-02-16T12:42:07;14.10;;;7.15;;
49536;SDS011;74893;30.696;104.058;2024-02-16T12:44:38;12.73;;;7.22;;
49536;SDS011;74893;30.696;104.058;2024-02-16T12:47:06;13.65;;;6.90;;
49536;SDS011;74893;30.696;104.058;2024-02-16T12:49:35;12.70;;;6.90;;
49536;SDS011;74893;30.696;104.058;2024-02-16T12:52:01;12.15;;;6.78;;
49536;SDS011;74893;30.696;104.058;2024-02-16T12:54:31;15.10;;;6.70;;
49536;SDS011;74893;30.696;104.058;2024-02-16T12:56:58;9.93;;;6.00;;
49536;SDS011;74893;30.696;104.058;2024-02-16T12:59:26;10.73;;;6.47;;
49536;SDS011;74893;30.696;104.058;2024-02-16T13:01:56;11.45;;;7.32;;
49536;SDS011;74893;30.696;104.058;2024-02-16T13:04:25;12.00;;;6.28;;
49536;SDS011;74893;30.696;104.058;2024-02-16T13:06:56;11.88;;;6.22;;
49536;SDS011;74893;30.696;104.058;2024-02-16T13:09:26;12.38;;;7.10;;
49536;SDS011;74893;30.696;104.058;2024-02-16T13:11:54;12.00;;;6.88;;
49536;SDS011;74893;30.696;104.058;2024-02-16T13:14:24;12.18;;;6.60;;
49536;SDS011;74893;30.696;104.058;2024-02-16T13:16:52;10.48;;;6.57;;
49536;SDS011;74893;30.696;104.058;2024-02-16T13:19:22;13.63;;;6.93;;
49536;SDS011;74893;30.696;104.058;2024-02-16T13:21:50;10.43;;;6.70;;
49536;SDS011;74893;30.696;104.058;2024-02-16T13:24:18;13.50;;;6.65;;
49536;SDS011;74893;30.696;104.058;2024-02-16T13:26:45;11.02;;;6.57;;
49536;SDS011;74893;30.696;104.058;2024-02-16T13:29:14;11.75;;;6.78;;
49536;SDS011;74893;30.696;104.058;2024-02-16T13:31:41;12.32;;;6.43;;
49536;SDS011;74893;30.696;104.058;2024-02-16T13:34:11;10.90;;;6.70;;
49536;SDS011;74893;30.696;104.058;2024-02-16T13:36:38;14.13;;;6.20;;
49536;SDS011;74893;30.696;104.058;2024-02-16T13:39:08;14.23;;;7.28;;
49536;SDS011;74893;30.696;104.058;2024-02-16T13:41:35;11.15;;;6.63;;
49536;SDS011;74893;30.696;104.058;2024-02-16T13:44:04;13.45;;;7.57;;
49536;SDS011;74893;30.696;104.058;2024-02-16T13:46:31;9.82;;;6.20;;
49536;SDS011;74893;30.696;104.058;2024-02-16T13:48:57;10.95;;;6.90;;
49536;SDS011;74893;30.696;104.058;2024-02-16T13:51:26;14.25;;;6.80;;
49536;SDS011;74893;30.696;104.058;2024-02-16T13:53:54;10.55;;;6.55;;
49536;SDS011;74893;30.696;104.058;2024-02-16T13:56:21;11.02;;;6.55;;
49536;SDS011;74893;30.696;104.058;2024-02-16T13:58:48;15.52;;;6.43;;
49536;SDS011;74893;30.696;104.058;2024-02-16T14:01:15;11.30;;;6.97;;
49536;SDS011;74893;30.696;104.058;2024-02-16T14:03:45;11.45;;;6.82;;
49536;SDS011;74893;30.696;104.058;2024-02-16T14:06:13;15.05;;;6.82;;
49536;SDS011;74893;30.696;104.058;2024-02-16T14:08:39;11.70;;;7.32;;
49536;SDS011;74893;30.696;104.058;2024-02-16T14:11:06;11.93;;;7.18;;
49536;SDS011;74893;30.696;104.058;2024-02-16T14:13:41;11.38;;;6.63;;
49536;SDS011;74893;30.696;104.058;2024-02-16T14:16:08;11.75;;;7.20;;
49536;SDS011;74893;30.696;104.058;2024-02-16T14:18:36;14.43;;;6.97;;
49536;SDS011;74893;30.696;104.058;2024-02-16T14:21:03;14.27;;;7.82;;
49536;SDS011;74893;30.696;104.058;2024-02-16T14:23:30;15.35;;;7.65;;
49536;SDS011;74893;30.696;104.058;2024-02-16T14:25:59;12.05;;;7.07;;